Time;durP1;ratioP1;P1;durP2;ratioP2;P2;SDS_P1;SDS_P2;PMS_P1;PMS_P2;Temp;Humidity;BMP_temperature;BMP_pressure;BME280_temperature;BME280_humidity;BME280_pressure;Samples;Min_cycle;Max_cycle;Signal;HPM_P1;HPM_P2
2022/04/25 00:01:31;;;;;;;;;17.00;15.33;;;;;;;;5080383;27;45498;-82
2022/04/25 00:03:56;;;;;;;;;17.67;16.00;;;;;;;;5080686;28;45527;-82
2022/04/25 00:06:21;;;;;;;;;16.00;16.00;;;;;;;;5061637;28;45663;-82
2022/04/25 00:08:47;;;;;;;;;14.33;13.00;;;;;;;;5077950;28;45814;-76
2022/04/25 00:11:12;;;;;;;;;20.67;18.00;;;;;;;;5077841;28;45660;-82
2022/04/25 00:13:37;;;;;;;;;15.33;14.33;;;;;;;;5084228;28;45518;-80
2022/04/25 00:16:03;;;;;;;;;22.33;18.00;;;;;;;;5090929;28;46866;-81
2022/04/25 00:18:29;;;;;;;;;12.00;12.00;;;;;;;;5088819;27;45390;-77
2022/04/25 00:20:55;;;;;;;;;19.67;13.67;;;;;;;;5076035;28;45415;-76
2022/04/25 00:23:20;;;;;;;;;20.33;19.00;;;;;;;;5075637;27;45406;-76
2022/04/25 00:25:45;;;;;;;;;18.00;18.00;;;;;;;;5057796;28;46932;-75
2022/04/25 00:28:11;;;;;;;;;17.00;14.67;;;;;;;;5057806;28;45417;-76
2022/04/25 00:30:36;;;;;;;;;15.67;15.67;;;;;;;;5059069;28;45472;-76
2022/04/25 00:33:01;;;;;;;;;12.67;11.67;;;;;;;;5058348;28;46061;-75
2022/04/25 00:35:27;;;;;;;;;20.67;15.00;;;;;;;;5046376;27;45429;-76
2022/04/25 00:37:53;;;;;;;;;19.00;19.00;;;;;;;;5090540;27;45475;-76
2022/04/25 00:40:19;;;;;;;;;13.33;13.00;;;;;;;;5098844;27;45717;-77
2022/04/25 00:42:44;;;;;;;;;13.33;13.00;;;;;;;;5094623;27;45615;-76
2022/04/25 00:45:11;;;;;;;;;16.67;16.00;;;;;;;;5076985;28;45706;-75
2022/04/25 00:47:37;;;;;;;;;19.67;17.67;;;;;;;;5078441;28;45529;-82
2022/04/25 00:50:03;;;;;;;;;13.00;11.00;;;;;;;;5062961;28;45811;-82
2022/04/25 00:52:28;;;;;;;;;17.00;13.33;;;;;;;;5080016;28;45283;-81
2022/04/25 00:54:53;;;;;;;;;15.00;12.00;;;;;;;;5075720;28;47229;-77
2022/04/25 00:57:20;;;;;;;;;20.00;16.67;;;;;;;;5076709;28;45385;-76
2022/04/25 00:59:45;;;;;;;;;16.33;13.67;;;;;;;;5077319;28;45825;-77
2022/04/25 01:02:10;;;;;;;;;18.33;16.00;;;;;;;;5077259;28;45741;-78
2022/04/25 01:04:36;;;;;;;;;18.33;13.33;;;;;;;;5058929;28;47110;-75
2022/04/25 01:07:01;;;;;;;;;13.33;11.67;;;;;;;;5076515;28;45812;-76
2022/04/25 01:09:27;;;;;;;;;17.00;13.33;;;;;;;;5078932;28;45363;-81
2022/04/25 01:11:52;;;;;;;;;16.00;16.00;;;;;;;;5086219;28;45532;-81
2022/04/25 01:14:19;;;;;;;;;19.33;16.67;;;;;;;;5096626;27;45523;-76
2022/04/25 01:16:45;;;;;;;;;18.33;16.67;;;;;;;;5061709;28;45370;-74
2022/04/25 01:19:10;;;;;;;;;19.33;15.33;;;;;;;;5075568;27;45427;-81
2022/04/25 01:21:57;;;;;;;;;14.33;14.33;;;;;;;;5102711;27;45416;-82
2022/04/25 01:27:16;;;;;;;;;13.33;11.67;;;;;;;;5101841;27;45431;-83
2022/04/25 01:29:42;;;;;;;;;16.33;13.33;;;;;;;;5085658;27;45450;-82
2022/04/25 01:32:08;;;;;;;;;17.33;15.00;;;;;;;;5101605;27;45540;-76
2022/04/25 01:34:36;;;;;;;;;15.33;14.00;;;;;;;;5091328;27;45696;-76
2022/04/25 01:37:02;;;;;;;;;15.33;15.33;;;;;;;;5100511;27;45366;-81
2022/04/25 01:39:27;;;;;;;;;16.67;13.33;;;;;;;;5096704;27;45995;-75
2022/04/25 01:42:03;;;;;;;;;14.00;13.33;;;;;;;;5066545;28;46046;-86
2022/04/25 01:44:29;;;;;;;;;16.67;13.33;;;;;;;;5051411;28;48225;-82
2022/04/25 01:46:55;;;;;;;;;14.33;13.00;;;;;;;;5082716;28;45618;-80
2022/04/25 01:49:20;;;;;;;;;16.67;15.33;;;;;;;;5085729;27;45476;-75
2022/04/25 01:51:45;;;;;;;;;18.33;14.33;;;;;;;;5096157;27;45637;-75
2022/04/25 01:54:11;;;;;;;;;13.67;12.33;;;;;;;;5098605;27;45465;-79
2022/04/25 01:56:37;;;;;;;;;19.67;15.67;;;;;;;;5089254;27;45468;-80
2022/04/25 01:59:02;;;;;;;;;15.00;13.33;;;;;;;;5091414;27;45494;-79
2022/04/25 02:01:27;;;;;;;;;14.00;12.33;;;;;;;;5101298;27;45396;-80
2022/04/25 02:03:52;;;;;;;;;20.00;16.00;;;;;;;;5100017;27;45705;-79
2022/04/25 02:06:18;;;;;;;;;16.00;16.00;;;;;;;;5099285;27;45354;-80
2022/04/25 02:08:43;;;;;;;;;18.00;17.00;;;;;;;;5074061;28;45338;-74
2022/04/25 02:11:21;;;;;;;;;14.67;14.67;;;;;;;;5088097;28;45753;-74
2022/04/25 02:13:48;;;;;;;;;15.33;15.33;;;;;;;;5074676;27;47276;-76
2022/04/25 02:16:15;;;;;;;;;14.67;14.67;;;;;;;;5075223;27;45564;-81
2022/04/25 02:18:40;;;;;;;;;18.00;16.33;;;;;;;;5094116;27;45771;-81
2022/04/25 02:21:06;;;;;;;;;20.67;18.33;;;;;;;;5075503;27;45943;-77
2022/04/25 02:23:31;;;;;;;;;15.67;14.00;;;;;;;;5080048;27;45885;-77
2022/04/25 02:25:56;;;;;;;;;17.33;14.33;;;;;;;;5091884;27;45801;-81
2022/04/25 02:28:21;;;;;;;;;19.00;15.33;;;;;;;;5076734;27;45406;-82
2022/04/25 02:30:47;;;;;;;;;16.00;15.33;;;;;;;;5094587;27;45810;-77
2022/04/25 02:33:16;;;;;;;;;20.00;16.33;;;;;;;;5095133;27;45412;-82
2022/04/25 02:35:48;;;;;;;;;20.00;18.00;;;;;;;;5082002;27;45804;-83
2022/04/25 02:38:13;;;;;;;;;16.00;16.00;;;;;;;;5083977;27;45527;-76
2022/04/25 02:40:39;;;;;;;;;14.00;13.33;;;;;;;;5086859;27;45834;-76
2022/04/25 02:43:04;;;;;;;;;18.67;17.33;;;;;;;;5086691;27;45752;-76
2022/04/25 02:45:29;;;;;;;;;17.67;17.00;;;;;;;;5077391;27;45348;-82
2022/04/25 02:47:55;;;;;;;;;20.67;18.00;;;;;;;;5076396;27;45386;-82
2022/04/25 02:50:20;;;;;;;;;16.33;13.33;;;;;;;;5073592;27;45689;-76
2022/04/25 02:52:46;;;;;;;;;20.00;16.00;;;;;;;;5093214;27;46414;-81
2022/04/25 02:55:11;;;;;;;;;19.67;15.00;;;;;;;;5093963;27;45743;-80
2022/04/25 02:57:37;;;;;;;;;24.67;19.33;;;;;;;;5074037;27;45793;-76
2022/04/25 03:00:03;;;;;;;;;18.67;17.00;;;;;;;;5093058;27;45766;-77
2022/04/25 03:02:29;;;;;;;;;23.00;17.00;;;;;;;;5092102;27;46845;-75
2022/04/25 03:04:54;;;;;;;;;17.33;16.00;;;;;;;;5074779;27;45525;-81
2022/04/25 03:07:19;;;;;;;;;18.00;14.67;;;;;;;;5093312;27;45689;-81
2022/04/25 03:09:45;;;;;;;;;20.67;15.33;;;;;;;;5084168;27;45856;-82
2022/04/25 03:12:10;;;;;;;;;18.00;16.67;;;;;;;;5088678;27;46561;-80
2022/04/25 03:14:35;;;;;;;;;18.33;15.33;;;;;;;;5059402;28;46046;-82
2022/04/25 03:17:01;;;;;;;;;22.33;16.33;;;;;;;;5074254;28;45506;-75
2022/04/25 03:19:26;;;;;;;;;24.00;19.67;;;;;;;;5071078;28;45575;-76
2022/04/25 03:21:51;;;;;;;;;17.00;16.67;;;;;;;;5070848;28;45545;-76
2022/04/25 03:24:17;;;;;;;;;24.33;19.33;;;;;;;;5074484;28;45480;-77
2022/04/25 03:26:42;;;;;;;;;20.33;17.67;;;;;;;;5070826;28;45752;-76
2022/04/25 03:29:07;;;;;;;;;25.00;21.00;;;;;;;;5070116;28;45891;-82
2022/04/25 03:31:32;;;;;;;;;25.00;21.33;;;;;;;;5071733;28;45497;-82
2022/04/25 03:33:58;;;;;;;;;19.67;16.33;;;;;;;;5056399;27;45752;-82
2022/04/25 03:36:23;;;;;;;;;17.33;17.00;;;;;;;;5073834;27;45493;-77
2022/04/25 03:38:52;;;;;;;;;22.67;21.33;;;;;;;;5094018;27;45729;-76
2022/04/25 03:41:18;;;;;;;;;21.00;21.00;;;;;;;;5086573;27;45784;-80
2022/04/25 03:43:44;;;;;;;;;22.67;21.00;;;;;;;;5078330;27;45652;-76
2022/04/25 03:46:09;;;;;;;;;24.67;22.67;;;;;;;;5102889;27;45722;-77
2022/04/25 03:48:34;;;;;;;;;23.33;20.00;;;;;;;;5084009;27;45907;-77
2022/04/25 03:50:59;;;;;;;;;20.00;17.67;;;;;;;;5104813;27;45818;-77
2022/04/25 03:53:25;;;;;;;;;25.67;20.67;;;;;;;;5105150;27;45712;-77
2022/04/25 03:58:34;;;;;;;;;24.00;18.33;;;;;;;;5098746;27;45704;-79
2022/04/25 04:01:02;;;;;;;;;29.67;19.00;;;;;;;;5090730;28;46005;-76
2022/04/25 04:03:28;;;;;;;;;27.00;22.33;;;;;;;;5087657;27;45405;-76
2022/04/25 04:05:54;;;;;;;;;23.00;19.67;;;;;;;;5087434;28;45385;-78
2022/04/25 04:08:19;;;;;;;;;19.67;17.33;;;;;;;;5093893;28;45336;-76
2022/04/25 04:10:45;;;;;;;;;24.33;20.00;;;;;;;;5097801;27;45897;-76
2022/04/25 04:13:10;;;;;;;;;25.67;21.67;;;;;;;;5088684;27;45476;-76
2022/04/25 04:15:35;;;;;;;;;26.33;25.00;;;;;;;;5108896;27;45691;-82
2022/04/25 04:18:01;;;;;;;;;23.00;20.67;;;;;;;;5114648;27;45659;-80
2022/04/25 04:20:26;;;;;;;;;21.67;19.67;;;;;;;;5092223;27;46854;-82
2022/04/25 04:22:52;;;;;;;;;25.67;21.00;;;;;;;;5084230;28;45626;-81
2022/04/25 04:25:17;;;;;;;;;25.67;23.00;;;;;;;;5062437;28;45317;-75
2022/04/25 04:27:43;;;;;;;;;23.67;22.33;;;;;;;;5081194;28;45768;-82
2022/04/25 04:30:10;;;;;;;;;26.00;24.00;;;;;;;;5064801;28;47139;-81
2022/04/25 04:32:38;;;;;;;;;34.33;28.00;;;;;;;;5083490;28;45398;-77
2022/04/25 04:35:05;;;;;;;;;35.67;30.00;;;;;;;;5060339;28;45796;-76
2022/04/25 04:37:33;;;;;;;;;31.33;23.67;;;;;;;;5077831;28;45623;-77
2022/04/25 04:42:42;;;;;;;;;27.33;24.67;;;;;;;;5082480;27;45376;-81
2022/04/25 04:45:08;;;;;;;;;28.33;26.33;;;;;;;;5075117;28;45638;-82
2022/04/25 04:47:34;;;;;;;;;27.00;25.33;;;;;;;;5074379;27;45859;-81
2022/04/25 04:50:30;;;;;;;;;26.33;25.67;;;;;;;;5054024;28;47058;-84
2022/04/25 04:56:15;;;;;;;;;25.33;22.00;;;;;;;;5064146;28;46040;-86
2022/04/25 04:59:06;;;;;;;;;;;;;;;;;;;;;
2022/04/25 05:08:50;;;;;;;;;34.67;30.33;;;;;;;;4980926;28;45799;-85
2022/04/25 05:11:28;;;;;;;;;;;;;;;;;;;;;
2022/04/25 05:14:33;;;;;;;;;37.00;31.67;;;;;;;;4928184;28;75263;-83
2022/04/25 05:20:45;;;;;;;;;35.33;30.33;;;;;;;;4980747;28;45919;-84
2022/04/25 05:23:31;;;;;;;;;33.00;29.67;;;;;;;;4987062;28;45764;-83
2022/04/25 05:25:56;;;;;;;;;38.33;32.67;;;;;;;;4997068;28;48339;-85
2022/04/25 05:29:10;;;;;;;;;;;;;;;;;;;;;
2022/04/25 05:31:54;;;;;;;;;42.00;35.00;;;;;;;;4967792;28;69207;-84
2022/04/25 05:34:19;;;;;;;;;48.33;38.33;;;;;;;;5007881;28;45768;-82
2022/04/25 05:36:45;;;;;;;;;44.67;32.33;;;;;;;;5054370;28;46285;-81
2022/04/25 05:39:10;;;;;;;;;44.67;35.67;;;;;;;;5058790;28;46103;-79
2022/04/25 05:41:37;;;;;;;;;40.33;34.00;;;;;;;;5053785;28;45781;-81
2022/04/25 05:44:03;;;;;;;;;46.75;36.75;;;;;;;;5068854;28;46514;-80
2022/04/25 05:46:34;;;;;;;;;39.00;33.33;;;;;;;;5050979;28;45484;-84
2022/04/25 05:52:26;;;;;;;;;39.00;34.33;;;;;;;;5037091;28;45670;-82
2022/04/25 05:55:04;;;;;;;;;41.00;35.00;;;;;;;;5028801;28;44975;-85
2022/04/25 05:57:43;;;;;;;;;43.67;35.33;;;;;;;;5025637;28;46129;-80
2022/04/25 06:00:17;;;;;;;;;42.75;36.00;;;;;;;;5037278;28;45978;-83
2022/04/25 06:02:43;;;;;;;;;44.33;36.67;;;;;;;;5050390;28;45951;-78
2022/04/25 06:05:15;;;;;;;;;42.33;35.00;;;;;;;;5051089;28;45528;-79
2022/04/25 06:07:44;;;;;;;;;44.33;35.00;;;;;;;;5068247;27;46648;-80
2022/04/25 06:10:10;;;;;;;;;40.00;34.67;;;;;;;;5070361;27;45805;-79
2022/04/25 06:12:54;;;;;;;;;45.00;36.00;;;;;;;;5073736;27;45599;-78
2022/04/25 06:15:21;;;;;;;;;43.00;35.33;;;;;;;;5086440;27;46075;-79
2022/04/25 06:17:47;;;;;;;;;46.75;37.50;;;;;;;;5085484;27;45583;-78
2022/04/25 06:20:12;;;;;;;;;46.67;37.67;;;;;;;;5072337;27;45475;-83
2022/04/25 06:22:37;;;;;;;;;45.00;35.00;;;;;;;;5084869;27;45720;-81
2022/04/25 06:25:03;;;;;;;;;46.33;36.00;;;;;;;;5085727;27;45876;-79
2022/04/25 06:27:29;;;;;;;;;38.67;33.00;;;;;;;;5088834;27;45593;-81
2022/04/25 06:29:54;;;;;;;;;44.00;38.67;;;;;;;;5069293;27;45920;-81
2022/04/25 06:32:20;;;;;;;;;47.00;36.67;;;;;;;;5090841;27;45896;-79
2022/04/25 06:34:45;;;;;;;;;46.67;35.33;;;;;;;;5082684;27;45527;-80
2022/04/25 06:37:11;;;;;;;;;42.00;36.33;;;;;;;;5082090;27;45916;-81
2022/04/25 06:39:37;;;;;;;;;47.00;35.67;;;;;;;;5065534;27;45771;-81
2022/04/25 06:42:03;;;;;;;;;41.00;35.33;;;;;;;;5075752;27;46172;-80
2022/04/25 06:44:30;;;;;;;;;43.00;36.00;;;;;;;;5077240;27;45939;-80
2022/04/25 06:46:56;;;;;;;;;46.67;38.33;;;;;;;;5058669;27;46794;-82
2022/04/25 06:49:24;;;;;;;;;43.00;35.00;;;;;;;;5056240;27;45430;-83
2022/04/25 06:54:53;;;;;;;;;42.67;37.00;;;;;;;;5007675;28;45991;-84
2022/04/25 06:57:33;;;;;;;;;46.67;38.33;;;;;;;;5064027;27;46038;-89
2022/04/25 07:00:20;;;;;;;;;51.00;38.00;;;;;;;;5072848;27;45461;-88
2022/04/25 07:02:46;;;;;;;;;41.00;34.33;;;;;;;;5071910;27;45532;-82
2022/04/25 07:14:07;;;;;;;;;44.00;37.33;;;;;;;;5043282;27;45629;-80
2022/04/25 07:16:38;;;;;;;;;39.00;34.67;;;;;;;;5087786;27;46032;-85
2022/04/25 07:30:19;;;;;;;;;40.67;35.33;;;;;;;;5117382;27;45729;-76
2022/04/25 07:32:44;;;;;;;;;46.33;38.33;;;;;;;;5117059;27;45486;-78
2022/04/25 07:35:10;;;;;;;;;42.67;35.00;;;;;;;;5091318;27;45359;-77
2022/04/25 07:37:35;;;;;;;;;39.67;34.00;;;;;;;;5105378;27;45559;-77
2022/04/25 07:40:02;;;;;;;;;42.00;36.00;;;;;;;;5096434;27;45407;-78
2022/04/25 07:42:29;;;;;;;;;35.67;31.00;;;;;;;;5116707;27;45606;-77
2022/04/25 07:44:54;;;;;;;;;40.00;30.33;;;;;;;;5112296;27;45261;-78
2022/04/25 07:47:20;;;;;;;;;36.00;33.33;;;;;;;;5098457;27;45466;-77
2022/04/25 07:49:45;;;;;;;;;36.00;33.67;;;;;;;;5114097;27;46425;-77
2022/04/25 07:52:10;;;;;;;;;34.00;30.00;;;;;;;;5113375;27;45357;-78
2022/04/25 07:54:36;;;;;;;;;35.33;28.67;;;;;;;;5119787;27;45328;-77
2022/04/25 07:57:03;;;;;;;;;42.67;36.00;;;;;;;;5116734;27;45435;-75
2022/04/25 07:59:28;;;;;;;;;29.67;26.33;;;;;;;;5080727;27;46661;-78
2022/04/25 08:01:54;;;;;;;;;33.67;30.33;;;;;;;;5095523;27;45706;-76
2022/04/25 08:04:19;;;;;;;;;30.33;27.67;;;;;;;;5095867;27;45290;-78
2022/04/25 08:06:44;;;;;;;;;30.67;29.33;;;;;;;;5094427;27;46573;-78
2022/04/25 08:09:09;;;;;;;;;33.33;29.67;;;;;;;;5094306;27;48556;-76
2022/04/25 08:11:35;;;;;;;;;35.67;32.33;;;;;;;;5095186;27;45406;-76
2022/04/25 08:19:31;;;;;;;;;28.33;27.33;;;;;;;;5115990;27;45821;-77
2022/04/25 08:21:56;;;;;;;;;33.67;30.33;;;;;;;;5115041;27;45673;-79
2022/04/25 08:24:21;;;;;;;;;31.00;27.00;;;;;;;;5094556;27;45778;-79
2022/04/25 08:26:47;;;;;;;;;37.00;31.67;;;;;;;;5094817;27;45463;-77
2022/04/25 08:29:12;;;;;;;;;35.67;28.67;;;;;;;;5094850;27;45635;-78
2022/04/25 08:31:37;;;;;;;;;26.67;26.67;;;;;;;;5094052;27;47507;-78
2022/04/25 08:34:04;;;;;;;;;30.33;27.33;;;;;;;;5094633;27;45436;-77
2022/04/25 08:36:30;;;;;;;;;33.67;31.33;;;;;;;;5104634;27;45476;-80
2022/04/25 08:38:55;;;;;;;;;31.00;31.00;;;;;;;;5088162;27;47392;-78
2022/04/25 08:41:24;;;;;;;;;37.00;31.00;;;;;;;;5112668;27;45712;-79
2022/04/25 08:43:52;;;;;;;;;35.67;31.00;;;;;;;;5102917;27;45704;-78
2022/04/25 08:46:19;;;;;;;;;34.33;29.33;;;;;;;;5103217;27;45934;-78
2022/04/25 08:48:45;;;;;;;;;33.00;30.67;;;;;;;;5093841;27;46356;-79
2022/04/25 08:51:11;;;;;;;;;36.33;32.00;;;;;;;;5106140;27;46028;-77
2022/04/25 08:53:39;;;;;;;;;31.00;27.67;;;;;;;;5104237;27;45573;-79
2022/04/25 08:56:06;;;;;;;;;29.67;26.33;;;;;;;;5102511;27;45548;-79
2022/04/25 08:58:32;;;;;;;;;37.33;31.00;;;;;;;;5112462;27;45699;-80
2022/04/25 09:00:58;;;;;;;;;32.67;29.00;;;;;;;;5106212;27;45911;-77
2022/04/25 09:03:24;;;;;;;;;32.67;29.00;;;;;;;;5105126;27;45821;-76
2022/04/25 09:05:53;;;;;;;;;29.00;29.00;;;;;;;;5103914;27;45426;-78
2022/04/25 09:08:18;;;;;;;;;32.67;30.67;;;;;;;;5082745;27;48441;-76
2022/04/25 09:10:44;;;;;;;;;29.67;27.00;;;;;;;;5104043;27;45651;-76
2022/04/25 09:13:10;;;;;;;;;27.00;25.67;;;;;;;;5108678;27;45633;-77
2022/04/25 09:15:36;;;;;;;;;26.00;23.67;;;;;;;;5107172;27;45494;-76
2022/04/25 09:18:02;;;;;;;;;32.33;30.00;;;;;;;;5094412;27;46679;-76
2022/04/25 09:20:28;;;;;;;;;25.00;24.33;;;;;;;;5109334;27;45889;-74
2022/04/25 09:22:54;;;;;;;;;28.00;25.67;;;;;;;;5102861;27;45977;-74
2022/04/25 09:25:19;;;;;;;;;30.00;27.00;;;;;;;;5091788;27;46456;-73
2022/04/25 09:27:47;;;;;;;;;25.33;25.33;;;;;;;;5092024;27;47802;-77
2022/04/25 09:30:13;;;;;;;;;31.33;25.67;;;;;;;;5087012;27;45558;-75
2022/04/25 09:32:38;;;;;;;;;25.67;23.67;;;;;;;;5105565;27;46002;-73
2022/04/25 09:35:22;;;;;;;;;30.33;24.67;;;;;;;;5084988;27;46028;-78
2022/04/25 09:37:48;;;;;;;;;28.33;26.33;;;;;;;;5083175;27;48772;-77
2022/04/25 09:40:18;;;;;;;;;20.67;20.67;;;;;;;;5086337;27;45782;-77
2022/04/25 09:42:43;;;;;;;;;26.67;24.00;;;;;;;;5104808;27;45704;-75
2022/04/25 09:45:09;;;;;;;;;29.00;24.67;;;;;;;;5087970;27;45832;-76
2022/04/25 09:47:36;;;;;;;;;31.33;26.00;;;;;;;;5107510;27;45766;-77
2022/04/25 09:50:08;;;;;;;;;26.33;24.00;;;;;;;;5106479;27;45360;-78
2022/04/25 09:52:34;;;;;;;;;31.00;26.67;;;;;;;;5087700;27;47627;-78
2022/04/25 09:55:17;;;;;;;;;22.33;21.33;;;;;;;;5098058;27;45530;-77
2022/04/25 09:57:46;;;;;;;;;24.00;20.33;;;;;;;;5085046;27;45447;-78
2022/04/25 10:00:13;;;;;;;;;21.00;21.00;;;;;;;;5098781;27;45793;-78
2022/04/25 10:02:41;;;;;;;;;19.33;19.33;;;;;;;;5104911;27;45664;-79
2022/04/25 10:05:13;;;;;;;;;17.33;17.33;;;;;;;;5091682;27;47014;-79
2022/04/25 10:07:39;;;;;;;;;20.00;20.00;;;;;;;;5092288;27;45408;-78
2022/04/25 10:10:05;;;;;;;;;18.00;18.00;;;;;;;;5089225;27;45952;-79
2022/04/25 10:12:31;;;;;;;;;20.00;18.67;;;;;;;;5105523;27;45515;-79
2022/04/25 10:14:58;;;;;;;;;21.00;18.33;;;;;;;;5113100;27;45405;-77
2022/04/25 10:17:24;;;;;;;;;19.67;16.67;;;;;;;;5100153;27;45521;-75
2022/04/25 10:19:50;;;;;;;;;17.67;17.67;;;;;;;;5104731;27;45420;-81
2022/04/25 10:22:18;;;;;;;;;20.67;19.67;;;;;;;;5095847;27;45786;-72
2022/04/25 10:24:44;;;;;;;;;16.67;16.67;;;;;;;;5111343;27;45422;-78
2022/04/25 10:27:13;;;;;;;;;15.67;15.00;;;;;;;;5097749;27;45285;-78
2022/04/25 10:29:43;;;;;;;;;17.00;17.00;;;;;;;;5099029;27;45781;-76
2022/04/25 10:32:10;;;;;;;;;20.33;17.67;;;;;;;;5074400;27;45870;-75
2022/04/25 10:34:51;;;;;;;;;14.67;12.67;;;;;;;;5094550;27;45362;-76
2022/04/25 10:37:29;;;;;;;;;12.67;12.33;;;;;;;;5094644;27;46098;-77
2022/04/25 10:39:55;;;;;;;;;16.67;13.67;;;;;;;;5100237;27;46451;-76
2022/04/25 10:45:04;;;;;;;;;17.33;16.67;;;;;;;;5120341;27;45499;-77
2022/04/25 10:47:30;;;;;;;;;17.33;16.33;;;;;;;;5104778;27;46161;-79
2022/04/25 10:49:58;;;;;;;;;16.67;14.67;;;;;;;;5109839;27;45829;-79
2022/04/25 10:52:42;;;;;;;;;14.67;14.00;;;;;;;;5103237;27;45406;-76
2022/04/25 10:55:14;;;;;;;;;15.67;14.67;;;;;;;;5104501;27;45521;-76
2022/04/25 10:57:58;;;;;;;;;15.00;12.67;;;;;;;;5109256;27;46211;-75
2022/04/25 11:00:45;;;;;;;;;19.67;18.67;;;;;;;;5109909;27;45431;-76
2022/04/25 11:03:10;;;;;;;;;15.00;15.00;;;;;;;;5114953;27;45463;-76
2022/04/25 11:05:39;;;;;;;;;15.33;13.33;;;;;;;;5105147;27;45463;-76
2022/04/25 11:08:20;;;;;;;;;17.67;14.67;;;;;;;;5108906;27;45601;-74
2022/04/25 11:10:45;;;;;;;;;13.00;12.00;;;;;;;;5081921;27;45756;-79
2022/04/25 11:13:12;;;;;;;;;12.00;10.67;;;;;;;;5111214;27;45680;-76
2022/04/25 11:15:39;;;;;;;;;16.33;14.33;;;;;;;;5109043;27;45638;-77
2022/04/25 11:18:43;;;;;;;;;16.00;14.67;;;;;;;;5105802;27;45825;-73
2022/04/25 11:21:09;;;;;;;;;11.67;11.67;;;;;;;;5106612;27;45803;-74
2022/04/25 11:23:35;;;;;;;;;11.67;11.00;;;;;;;;5094656;27;45876;-75
2022/04/25 11:26:01;;;;;;;;;13.00;11.00;;;;;;;;5115998;27;45404;-74
2022/04/25 11:28:28;;;;;;;;;10.67;10.67;;;;;;;;5116144;27;45696;-75
2022/04/25 11:31:13;;;;;;;;;9.00;9.00;;;;;;;;5112963;27;45646;-75
2022/04/25 11:33:42;;;;;;;;;10.33;10.33;;;;;;;;5097336;27;45518;-75
2022/04/25 11:36:08;;;;;;;;;11.00;9.67;;;;;;;;5112700;27;45400;-75
2022/04/25 11:41:22;;;;;;;;;7.67;7.67;;;;;;;;5112845;27;45617;-75
2022/04/25 11:43:47;;;;;;;;;10.67;9.67;;;;;;;;5107753;27;45506;-76
2022/04/25 11:46:13;;;;;;;;;12.00;11.00;;;;;;;;5105586;27;45397;-73
2022/04/25 11:48:39;;;;;;;;;9.67;8.33;;;;;;;;5112229;27;45384;-74
2022/04/25 11:51:04;;;;;;;;;11.67;10.00;;;;;;;;5109992;27;45389;-74
2022/04/25 11:53:31;;;;;;;;;10.67;9.67;;;;;;;;5109588;27;45581;-74
2022/04/25 11:56:01;;;;;;;;;12.00;9.00;;;;;;;;5107471;27;45661;-73
2022/04/25 11:58:30;;;;;;;;;7.33;7.33;;;;;;;;5107732;27;46116;-70
2022/04/25 12:00:56;;;;;;;;;8.33;8.33;;;;;;;;5110984;27;45533;-76
2022/04/25 12:03:24;;;;;;;;;10.33;7.00;;;;;;;;5114819;27;45729;-74
2022/04/25 12:05:49;;;;;;;;;5.67;5.67;;;;;;;;5112602;27;45800;-75
2022/04/25 12:16:34;;;;;;;;;11.00;10.00;;;;;;;;5116700;27;45675;-78
2022/04/25 12:19:05;;;;;;;;;7.67;7.67;;;;;;;;5115998;27;46560;-77
2022/04/25 12:21:32;;;;;;;;;9.33;8.67;;;;;;;;5097137;27;45385;-77
2022/04/25 12:23:57;;;;;;;;;9.67;9.67;;;;;;;;5116126;27;45577;-76
2022/04/25 12:26:23;;;;;;;;;8.33;8.33;;;;;;;;5112511;27;45649;-77
2022/04/25 12:28:53;;;;;;;;;8.67;8.67;;;;;;;;5078104;27;47859;-77
2022/04/25 12:31:19;;;;;;;;;8.33;8.33;;;;;;;;5096178;27;45516;-77
2022/04/25 12:33:45;;;;;;;;;10.33;10.33;;;;;;;;5098213;27;45645;-76
2022/04/25 12:36:10;;;;;;;;;6.67;6.33;;;;;;;;5116960;27;45661;-76
2022/04/25 12:38:39;;;;;;;;;6.00;5.00;;;;;;;;5122205;27;45266;-77
2022/04/25 12:41:04;;;;;;;;;11.33;10.00;;;;;;;;5109850;27;45423;-76
2022/04/25 12:43:37;;;;;;;;;9.00;7.67;;;;;;;;5102303;27;45341;-77
2022/04/25 12:46:32;;;;;;;;;;;;;;;;;;;;;
2022/04/25 12:48:59;;;;;;;;;7.00;7.00;;;;;;;;5110075;27;73974;-77
2022/04/25 12:51:29;;;;;;;;;8.33;8.00;;;;;;;;5096673;27;45736;-77
2022/04/25 12:53:54;;;;;;;;;9.67;6.00;;;;;;;;5109008;27;45511;-76
2022/04/25 12:56:30;;;;;;;;;8.67;7.67;;;;;;;;5110315;27;45363;-77
2022/04/25 12:58:56;;;;;;;;;9.00;8.33;;;;;;;;5119280;27;45563;-76
2022/04/25 13:01:30;;;;;;;;;9.67;8.33;;;;;;;;5116314;27;45727;-78
2022/04/25 13:04:36;;;;;;;;;7.67;7.67;;;;;;;;5110998;27;44927;-76
2022/04/25 13:09:59;;;;;;;;;8.33;7.33;;;;;;;;5069811;28;45009;-78
2022/04/25 13:12:30;;;;;;;;;7.67;5.00;;;;;;;;5040588;28;45452;-78
2022/04/25 13:14:55;;;;;;;;;6.00;5.00;;;;;;;;5101435;27;45716;-77
2022/04/25 13:17:21;;;;;;;;;5.67;4.00;;;;;;;;5096634;27;46962;-77
2022/04/25 13:19:46;;;;;;;;;6.00;4.00;;;;;;;;5096948;27;47624;-76
2022/04/25 13:22:12;;;;;;;;;5.67;4.67;;;;;;;;5086991;27;45460;-75
2022/04/25 13:24:37;;;;;;;;;4.67;4.33;;;;;;;;5109503;27;45867;-76
2022/04/25 13:27:05;;;;;;;;;6.33;6.00;;;;;;;;5109931;27;45956;-77
2022/04/25 13:29:30;;;;;;;;;9.67;5.67;;;;;;;;5095805;27;45587;-77
2022/04/25 13:31:56;;;;;;;;;4.00;4.00;;;;;;;;5115636;27;45515;-77
2022/04/25 13:34:21;;;;;;;;;6.00;5.00;;;;;;;;5104224;27;45536;-76
2022/04/25 13:36:46;;;;;;;;;4.67;4.67;;;;;;;;5105282;27;45995;-79
2022/04/25 13:39:12;;;;;;;;;7.00;6.33;;;;;;;;5088050;27;46982;-77
2022/04/25 13:41:37;;;;;;;;;4.67;4.00;;;;;;;;5089417;27;45841;-76
2022/04/25 13:44:05;;;;;;;;;6.00;6.00;;;;;;;;5084108;27;45992;-76
2022/04/25 13:46:31;;;;;;;;;5.67;4.00;;;;;;;;5108890;27;45862;-78
2022/04/25 13:48:57;;;;;;;;;7.00;4.00;;;;;;;;5087852;27;47365;-74
2022/04/25 13:51:22;;;;;;;;;6.33;5.00;;;;;;;;5096431;27;45544;-74
2022/04/25 13:53:48;;;;;;;;;4.67;4.67;;;;;;;;5107625;27;45748;-76
2022/04/25 13:56:13;;;;;;;;;5.00;5.00;;;;;;;;5103466;27;45772;-73
2022/04/25 13:58:39;;;;;;;;;5.00;4.00;;;;;;;;5085061;27;45333;-75
2022/04/25 14:01:09;;;;;;;;;4.00;4.00;;;;;;;;5102449;27;45562;-75
2022/04/25 14:03:35;;;;;;;;;6.00;6.00;;;;;;;;5107653;27;45419;-72
2022/04/25 14:06:01;;;;;;;;;4.00;4.00;;;;;;;;5105983;27;45781;-73
2022/04/25 14:08:26;;;;;;;;;3.33;3.33;;;;;;;;5102654;27;45527;-72
2022/04/25 14:10:52;;;;;;;;;4.00;4.00;;;;;;;;5106522;27;45609;-72
2022/04/25 14:13:19;;;;;;;;;5.00;4.00;;;;;;;;5097579;27;45878;-71
2022/04/25 14:15:44;;;;;;;;;7.67;5.00;;;;;;;;5093023;27;46581;-73
2022/04/25 14:18:10;;;;;;;;;6.33;5.67;;;;;;;;5085683;27;47943;-73
2022/04/25 14:20:36;;;;;;;;;3.67;3.67;;;;;;;;5104485;27;45680;-73
2022/04/25 14:23:02;;;;;;;;;4.00;4.00;;;;;;;;5105277;27;45602;-71
2022/04/25 14:25:36;;;;;;;;;3.67;3.33;;;;;;;;5086198;27;45948;-71
2022/04/25 14:28:12;;;;;;;;;5.00;5.00;;;;;;;;5112296;27;46285;-77
2022/04/25 14:30:38;;;;;;;;;4.33;4.33;;;;;;;;5094116;27;46038;-79
2022/04/25 14:33:03;;;;;;;;;6.00;5.00;;;;;;;;5088026;27;46114;-73
2022/04/25 14:35:34;;;;;;;;;4.67;4.67;;;;;;;;5079416;27;46085;-77
2022/04/25 14:38:00;;;;;;;;;4.33;3.33;;;;;;;;5098086;27;45686;-75
2022/04/25 14:40:25;;;;;;;;;4.00;4.00;;;;;;;;5078699;27;45469;-74
2022/04/25 14:42:51;;;;;;;;;5.00;4.00;;;;;;;;5072912;27;45539;-74
2022/04/25 14:45:17;;;;;;;;;3.67;2.67;;;;;;;;5092031;27;46056;-79
2022/04/25 14:47:43;;;;;;;;;4.00;4.00;;;;;;;;5093118;27;45946;-78
2022/04/25 14:55:37;;;;;;;;;3.00;3.00;;;;;;;;5092794;27;45841;-78
2022/04/25 14:58:02;;;;;;;;;4.00;4.00;;;;;;;;5093339;27;45738;-79
2022/04/25 15:00:28;;;;;;;;;4.33;3.00;;;;;;;;5096682;27;45474;-79
2022/04/25 15:02:54;;;;;;;;;3.00;3.00;;;;;;;;5095215;27;46472;-77
2022/04/25 15:05:22;;;;;;;;;3.67;2.33;;;;;;;;5087609;27;46037;-77
2022/04/25 15:07:47;;;;;;;;;4.00;3.00;;;;;;;;5100156;27;46594;-78
2022/04/25 15:10:13;;;;;;;;;3.00;3.00;;;;;;;;5098692;27;45743;-72
2022/04/25 15:12:39;;;;;;;;;4.67;4.67;;;;;;;;5080886;27;45907;-71
2022/04/25 15:15:05;;;;;;;;;2.33;2.33;;;;;;;;5100200;27;45737;-72
2022/04/25 15:17:30;;;;;;;;;2.67;2.00;;;;;;;;5094289;27;46118;-70
2022/04/25 15:19:55;;;;;;;;;2.00;2.00;;;;;;;;5102995;27;45645;-72
2022/04/25 15:22:21;;;;;;;;;3.00;3.00;;;;;;;;5082980;27;45484;-71
2022/04/25 15:24:46;;;;;;;;;2.00;2.00;;;;;;;;5083008;27;46255;-71
2022/04/25 15:27:12;;;;;;;;;4.00;4.00;;;;;;;;5098225;27;45835;-71
2022/04/25 15:29:40;;;;;;;;;2.33;2.00;;;;;;;;5100735;27;45898;-72
2022/04/25 15:32:06;;;;;;;;;1.00;1.00;;;;;;;;5099154;27;45734;-73
2022/04/25 15:34:31;;;;;;;;;4.67;4.00;;;;;;;;5105037;27;45396;-72
2022/04/25 15:36:56;;;;;;;;;5.00;3.00;;;;;;;;5101342;27;46249;-73
2022/04/25 15:39:23;;;;;;;;;3.67;3.67;;;;;;;;5105475;27;45476;-76
2022/04/25 15:41:48;;;;;;;;;3.33;2.33;;;;;;;;5103509;27;45817;-75
2022/04/25 15:44:13;;;;;;;;;3.00;3.00;;;;;;;;5097366;27;45400;-78
2022/04/25 15:46:40;;;;;;;;;3.00;3.00;;;;;;;;5100375;27;45658;-75
2022/04/25 15:49:06;;;;;;;;;3.33;3.33;;;;;;;;5106830;27;45677;-75